Time;durP1;ratioP1;P1;durP2;ratioP2;P2;SDS_P1;SDS_P2;PMS_P1;PMS_P2;Temp;Humidity;BMP_temperature;BMP_pressure;BME280_temperature;BME280_humidity;BME280_pressure;Samples;Min_cycle;Max_cycle;Signal;HPM_P1;HPM_P2
2021/10/10 00:01:04;;;;;;;16.13;8.82;;;10.80;97.30;;;;;;5029037;28;20038;-76
2021/10/10 00:03:30;;;;;;;15.18;8.55;;;10.70;97.30;;;;;;5014410;28;20022;-76
2021/10/10 00:05:55;;;;;;;17.55;9.40;;;10.80;97.30;;;;;;5028874;28;20025;-77
2021/10/10 00:08:21;;;;;;;14.93;9.15;;;10.70;97.30;;;;;;5014160;28;20026;-76
2021/10/10 00:10:48;;;;;;;14.98;8.60;;;10.80;97.40;;;;;;5013996;28;20069;-76
2021/10/10 00:13:13;;;;;;;17.50;8.82;;;10.70;97.30;;;;;;5013490;28;20041;-76
2021/10/10 00:15:39;;;;;;;16.98;9.13;;;10.70;97.20;;;;;;5029314;28;20138;-76
2021/10/10 00:18:06;;;;;;;22.52;9.70;;;10.70;97.20;;;;;;5013469;28;20033;-77
2021/10/10 00:20:31;;;;;;;19.45;9.98;;;10.70;97.20;;;;;;5014137;28;20030;-76
2021/10/10 00:22:57;;;;;;;16.52;9.50;;;10.70;97.20;;;;;;5013543;28;20021;-76
2021/10/10 00:25:23;;;;;;;15.60;8.77;;;10.70;97.20;;;;;;5014145;28;20029;-76
2021/10/10 00:27:48;;;;;;;14.38;8.65;;;10.70;97.20;;;;;;5029054;28;20030;-75
2021/10/10 00:30:16;;;;;;;14.70;8.57;;;10.70;97.20;;;;;;5013298;28;20042;-77
2021/10/10 00:32:42;;;;;;;16.00;8.82;;;10.60;97.10;;;;;;5013779;28;20022;-75
2021/10/10 00:35:09;;;;;;;17.38;9.10;;;10.60;97.20;;;;;;5013471;28;20080;-75
2021/10/10 00:37:35;;;;;;;18.10;8.75;;;10.60;97.20;;;;;;5013753;28;20018;-75
2021/10/10 00:40:00;;;;;;;19.25;9.43;;;10.60;97.20;;;;;;5013508;28;20049;-77
2021/10/10 00:42:26;;;;;;;17.95;9.70;;;10.60;97.20;;;;;;5028880;28;20112;-76
2021/10/10 00:44:52;;;;;;;16.23;9.23;;;10.60;97.30;;;;;;5013668;28;20041;-76
2021/10/10 00:47:17;;;;;;;16.38;8.45;;;10.60;97.30;;;;;;5012596;28;20056;-76
2021/10/10 00:49:43;;;;;;;18.50;9.15;;;10.60;97.30;;;;;;5028709;28;20036;-76
2021/10/10 00:52:16;;;;;;;16.42;8.85;;;10.50;97.20;;;;;;5011590;28;20112;-76
2021/10/10 00:54:46;;;;;;;18.05;9.50;;;10.50;97.30;;;;;;5028138;28;20022;-76
2021/10/10 00:57:13;;;;;;;17.10;9.67;;;10.50;97.30;;;;;;5012668;28;20076;-76
2021/10/10 00:59:41;;;;;;;15.05;8.75;;;10.50;97.30;;;;;;5013617;28;20457;-76
2021/10/10 01:02:07;;;;;;;17.77;8.50;;;10.40;97.20;;;;;;5012609;28;20094;-77
2021/10/10 01:04:33;;;;;;;16.38;9.23;;;10.40;97.20;;;;;;5013541;28;20480;-76
2021/10/10 01:07:00;;;;;;;19.42;9.35;;;10.40;97.20;;;;;;5012705;28;20026;-76
2021/10/10 01:09:27;;;;;;;15.45;7.63;;;10.40;97.20;;;;;;5013196;28;20022;-76
2021/10/10 01:11:53;;;;;;;16.10;8.45;;;10.40;97.20;;;;;;5013155;28;20025;-76
2021/10/10 01:14:19;;;;;;;15.70;9.05;;;10.30;97.20;;;;;;5027714;28;20026;-76
2021/10/10 01:16:45;;;;;;;17.98;9.65;;;10.30;97.20;;;;;;5011765;28;20394;-76
2021/10/10 01:19:11;;;;;;;17.23;8.82;;;10.30;97.20;;;;;;5027505;28;20022;-75
2021/10/10 01:21:37;;;;;;;16.90;8.45;;;10.30;97.30;;;;;;5012653;28;20525;-76
2021/10/10 01:24:03;;;;;;;18.48;9.27;;;10.20;97.20;;;;;;5012607;28;20062;-74
2021/10/10 01:26:30;;;;;;;15.77;9.40;;;10.20;97.20;;;;;;5012816;28;20109;-74
2021/10/10 01:28:56;;;;;;;15.90;9.43;;;10.20;97.20;;;;;;5013075;28;20030;-75
2021/10/10 01:31:21;;;;;;;16.15;9.18;;;10.20;97.20;;;;;;5012453;28;20092;-75
2021/10/10 01:33:47;;;;;;;17.00;8.70;;;10.20;97.20;;;;;;5027926;28;20028;-75
2021/10/10 01:36:14;;;;;;;16.73;9.20;;;10.20;97.20;;;;;;5012186;28;20061;-76
2021/10/10 01:38:40;;;;;;;18.38;9.30;;;10.20;97.50;;;;;;5012894;28;20077;-76
2021/10/10 01:41:10;;;;;;;14.35;8.02;;;10.10;97.30;;;;;;5027195;28;20076;-76
2021/10/10 01:43:38;;;;;;;17.08;9.40;;;10.10;97.20;;;;;;5027957;28;20017;-75
2021/10/10 01:46:04;;;;;;;16.30;8.77;;;10.10;97.20;;;;;;5010755;28;20029;-75
2021/10/10 01:48:30;;;;;;;16.85;8.95;;;10.10;97.20;;;;;;5012063;28;20057;-75
2021/10/10 01:50:57;;;;;;;16.60;8.73;;;10.10;97.20;;;;;;5027634;28;20026;-75
2021/10/10 01:53:22;;;;;;;16.92;9.35;;;10.10;97.30;;;;;;5011878;28;20025;-74
2021/10/10 01:55:49;;;;;;;15.27;8.80;;;10.10;97.30;;;;;;5012708;28;20437;-75
2021/10/10 01:58:14;;;;;;;16.67;8.60;;;10.10;97.30;;;;;;5026869;28;20477;-75
2021/10/10 02:00:40;;;;;;;15.60;8.90;;;10.10;97.20;;;;;;5012106;28;20090;-76
2021/10/10 02:03:06;;;;;;;14.23;8.93;;;10.00;97.20;;;;;;5011465;28;20030;-76
2021/10/10 02:05:32;;;;;;;13.63;8.55;;;10.10;97.50;;;;;;5012748;28;20532;-76
2021/10/10 02:07:57;;;;;;;15.68;8.30;;;10.10;97.20;;;;;;5012274;28;20480;-76
2021/10/10 02:10:23;;;;;;;15.63;7.88;;;10.00;97.20;;;;;;5011695;28;20369;-77
2021/10/10 02:12:49;;;;;;;14.18;8.00;;;10.00;97.20;;;;;;5012205;28;20382;-77
2021/10/10 02:15:15;;;;;;;19.75;9.23;;;10.00;97.20;;;;;;5011355;28;20025;-77
2021/10/10 02:17:41;;;;;;;14.95;8.52;;;10.00;97.20;;;;;;5012187;28;20148;-76
2021/10/10 02:20:08;;;;;;;16.00;8.57;;;10.00;97.20;;;;;;5011981;28;20054;-77
2021/10/10 02:22:34;;;;;;;15.48;8.68;;;10.00;97.20;;;;;;5010606;28;20117;-76
2021/10/10 02:25:00;;;;;;;15.20;9.20;;;10.00;97.20;;;;;;5011860;28;20028;-76
2021/10/10 02:27:26;;;;;;;20.33;9.18;;;10.00;97.20;;;;;;5012139;28;20036;-75
2021/10/10 02:29:52;;;;;;;15.57;9.10;;;10.00;97.20;;;;;;5012244;28;20025;-76
2021/10/10 02:32:18;;;;;;;16.50;9.18;;;9.90;97.20;;;;;;5011639;28;20348;-76
2021/10/10 02:34:44;;;;;;;15.27;8.68;;;9.90;97.10;;;;;;5011986;28;20033;-75
2021/10/10 02:37:09;;;;;;;13.57;8.40;;;9.90;97.10;;;;;;5011340;28;20463;-75
2021/10/10 02:39:36;;;;;;;17.05;9.55;;;9.90;97.10;;;;;;5027356;28;20026;-76
2021/10/10 02:42:03;;;;;;;15.75;8.73;;;9.90;97.20;;;;;;5027188;28;20026;-76
2021/10/10 02:44:29;;;;;;;18.27;9.10;;;9.80;97.10;;;;;;5011970;28;20030;-76
2021/10/10 02:46:55;;;;;;;20.52;9.80;;;9.80;97.20;;;;;;5026781;28;20064;-76
2021/10/10 02:49:21;;;;;;;18.65;9.93;;;9.80;97.20;;;;;;5010414;28;20109;-76
2021/10/10 02:51:47;;;;;;;14.70;8.25;;;9.80;97.20;;;;;;5026907;28;20037;-75
2021/10/10 02:54:13;;;;;;;16.20;9.02;;;9.70;97.20;;;;;;5011037;28;20033;-76
2021/10/10 02:56:38;;;;;;;15.20;9.25;;;9.70;97.20;;;;;;5027169;28;20022;-76
2021/10/10 02:59:04;;;;;;;15.45;7.93;;;9.70;97.20;;;;;;5011506;28;20041;-77
2021/10/10 03:01:29;;;;;;;15.23;8.38;;;9.70;97.20;;;;;;5011788;28;20053;-76
2021/10/10 03:03:55;;;;;;;14.73;8.85;;;9.70;97.20;;;;;;5026886;28;20030;-76
2021/10/10 03:06:21;;;;;;;14.73;8.60;;;9.70;97.20;;;;;;5011489;28;20106;-76
2021/10/10 03:08:46;;;;;;;18.33;9.13;;;9.70;97.20;;;;;;5011892;28;20454;-76
2021/10/10 03:11:12;;;;;;;16.10;8.95;;;9.60;97.20;;;;;;5026258;28;20439;-76
2021/10/10 03:13:38;;;;;;;16.08;9.00;;;9.60;97.20;;;;;;5026932;28;20100;-76
2021/10/10 03:16:04;;;;;;;15.18;8.57;;;9.70;97.20;;;;;;5034152;28;20091;-76
2021/10/10 03:18:30;;;;;;;16.02;8.85;;;9.70;97.20;;;;;;5031162;28;20021;-75
2021/10/10 03:20:55;;;;;;;17.17;9.10;;;9.70;97.20;;;;;;5033670;28;20084;-75
2021/10/10 03:23:21;;;;;;;14.73;8.57;;;9.70;97.20;;;;;;5033077;28;20519;-75
2021/10/10 03:25:47;;;;;;;18.30;8.98;;;9.60;97.10;;;;;;5033353;28;20037;-74
2021/10/10 03:28:12;;;;;;;17.40;9.50;;;9.60;97.10;;;;;;5034128;28;20025;-74
2021/10/10 03:30:38;;;;;;;14.25;8.68;;;9.60;97.10;;;;;;5033423;28;20060;-74
2021/10/10 03:33:04;;;;;;;17.27;9.05;;;9.60;97.20;;;;;;5034406;28;20032;-74
2021/10/10 03:35:30;;;;;;;15.77;9.23;;;9.60;97.20;;;;;;5033699;28;20036;-74
2021/10/10 03:37:55;;;;;;;15.88;8.82;;;9.60;97.20;;;;;;5034529;28;20510;-77
2021/10/10 03:40:21;;;;;;;16.17;9.80;;;9.60;97.20;;;;;;5032710;28;20458;-74
2021/10/10 03:42:47;;;;;;;18.45;9.75;;;9.60;97.10;;;;;;5034557;28;20132;-77
2021/10/10 03:45:13;;;;;;;16.58;9.48;;;9.60;97.10;;;;;;5033648;28;20062;-74
2021/10/10 03:47:40;;;;;;;14.80;8.63;;;9.60;97.10;;;;;;5034112;28;20042;-74
2021/10/10 03:50:06;;;;;;;16.52;9.00;;;9.60;97.10;;;;;;5034346;28;20532;-74
2021/10/10 03:52:32;;;;;;;13.57;8.80;;;9.60;97.20;;;;;;5032702;28;20068;-74
2021/10/10 03:55:26;;;;;;;17.63;9.50;;;9.50;97.10;;;;;;5034435;28;20111;-74
2021/10/10 03:57:53;;;;;;;17.02;9.23;;;9.50;97.20;;;;;;5033059;28;20017;-74
2021/10/10 04:00:19;;;;;;;19.48;9.45;;;9.50;97.10;;;;;;5032359;28;20021;-74
2021/10/10 04:02:44;;;;;;;16.27;8.95;;;9.50;97.40;;;;;;5032959;28;20464;-74
2021/10/10 04:07:55;;;;;;;18.63;8.73;;;9.50;97.20;;;;;;5034125;28;20087;-75
2021/10/10 04:10:21;;;;;;;15.45;9.40;;;9.40;97.20;;;;;;5032237;28;20112;-74
2021/10/10 04:12:46;;;;;;;14.95;9.10;;;9.40;97.10;;;;;;5034119;28;20033;-75
2021/10/10 04:15:13;;;;;;;16.80;8.90;;;9.40;97.10;;;;;;5033359;28;20106;-76
2021/10/10 04:17:39;;;;;;;14.30;8.45;;;9.40;97.10;;;;;;5032479;28;20025;-74
2021/10/10 04:20:06;;;;;;;18.65;8.88;;;9.40;97.10;;;;;;5033737;28;20056;-75
2021/10/10 04:22:31;;;;;;;16.92;9.25;;;9.40;97.10;;;;;;5033391;28;20034;-75
2021/10/10 04:24:57;;;;;;;18.80;10.27;;;9.30;97.20;;;;;;5033982;28;20040;-75
2021/10/10 04:27:23;;;;;;;20.85;9.90;;;9.30;97.20;;;;;;5031857;28;20032;-76
2021/10/10 04:29:48;;;;;;;20.13;9.90;;;9.40;97.20;;;;;;5031261;28;20422;-75
2021/10/10 04:32:14;;;;;;;15.30;9.32;;;9.30;97.10;;;;;;5033226;28;20022;-76
2021/10/10 04:34:40;;;;;;;21.50;10.02;;;9.30;97.10;;;;;;5033657;28;20029;-75
2021/10/10 04:37:06;;;;;;;15.95;9.40;;;9.30;97.10;;;;;;5033213;28;20025;-75
2021/10/10 04:39:32;;;;;;;16.90;8.77;;;9.30;97.10;;;;;;5032638;28;20049;-75
2021/10/10 04:41:57;;;;;;;15.25;8.57;;;9.30;97.10;;;;;;5033453;28;20060;-75
2021/10/10 04:44:23;;;;;;;15.45;9.05;;;9.20;97.10;;;;;;5031243;28;20406;-75
2021/10/10 04:46:49;;;;;;;14.05;8.10;;;9.20;97.10;;;;;;5031826;28;20030;-76
2021/10/10 04:49:15;;;;;;;16.80;9.40;;;9.20;97.20;;;;;;5031032;28;20064;-75
2021/10/10 04:51:40;;;;;;;16.45;8.50;;;9.10;97.10;;;;;;5032872;28;20112;-76
2021/10/10 04:54:06;;;;;;;18.00;9.13;;;9.10;97.10;;;;;;5031876;28;20025;-75
2021/10/10 04:56:31;;;;;;;14.88;8.68;;;9.10;97.20;;;;;;5032615;28;20454;-76
2021/10/10 04:58:57;;;;;;;15.80;9.27;;;9.10;97.20;;;;;;5033100;28;20029;-75
2021/10/10 05:01:23;;;;;;;14.25;8.40;;;9.10;97.20;;;;;;5031189;28;20202;-76
2021/10/10 05:03:48;;;;;;;18.13;9.73;;;9.00;97.20;;;;;;5031744;28;20420;-75
2021/10/10 05:06:14;;;;;;;18.50;9.48;;;9.00;97.20;;;;;;5032329;28;20441;-76
2021/10/10 05:08:40;;;;;;;17.55;9.55;;;9.00;97.20;;;;;;5031640;28;20052;-75
2021/10/10 05:11:06;;;;;;;16.58;9.13;;;9.00;97.20;;;;;;5032820;28;20021;-75
2021/10/10 05:13:32;;;;;;;17.55;8.98;;;9.00;97.20;;;;;;5032191;28;20037;-75
2021/10/10 05:15:58;;;;;;;19.20;9.30;;;8.90;97.10;;;;;;5033182;28;20026;-75
2021/10/10 05:18:23;;;;;;;16.83;9.20;;;8.90;97.20;;;;;;5032121;28;20036;-75
2021/10/10 05:20:49;;;;;;;20.35;9.43;;;8.90;97.20;;;;;;5031358;28;20032;-75
2021/10/10 05:23:15;;;;;;;17.60;10.02;;;8.90;97.20;;;;;;5032151;28;20025;-77
2021/10/10 05:25:41;;;;;;;17.90;9.68;;;8.90;97.20;;;;;;5031344;28;20018;-75
2021/10/10 05:28:07;;;;;;;16.88;9.85;;;8.80;97.20;;;;;;5032581;28;20022;-75
2021/10/10 05:30:33;;;;;;;16.17;9.18;;;8.80;97.20;;;;;;5031624;28;20106;-75
2021/10/10 05:33:00;;;;;;;17.30;10.02;;;8.80;97.20;;;;;;5032541;28;20025;-75
2021/10/10 05:35:25;;;;;;;18.48;10.75;;;8.70;97.20;;;;;;5031614;28;20036;-75
2021/10/10 05:37:51;;;;;;;19.50;10.15;;;8.70;97.20;;;;;;5031224;28;20021;-75
2021/10/10 05:40:17;;;;;;;17.45;10.05;;;8.70;97.20;;;;;;5032037;28;20454;-76
2021/10/10 05:42:42;;;;;;;18.70;9.88;;;8.70;97.20;;;;;;5032118;28;20030;-75
2021/10/10 05:45:10;;;;;;;19.95;9.95;;;8.70;97.20;;;;;;5032683;28;20377;-75
2021/10/10 05:47:36;;;;;;;19.58;10.75;;;8.70;97.20;;;;;;5030088;28;20064;-75
2021/10/10 05:50:03;;;;;;;17.52;9.07;;;8.60;97.20;;;;;;5030947;28;20112;-75
2021/10/10 05:52:28;;;;;;;15.50;8.32;;;8.70;97.20;;;;;;5031266;28;20466;-75
2021/10/10 05:54:54;;;;;;;16.23;8.55;;;8.60;97.20;;;;;;5032257;28;20064;-75
2021/10/10 05:57:42;;;;;;;18.65;9.75;;;8.60;97.20;;;;;;5029973;28;20071;-76
2021/10/10 06:00:09;;;;;;;18.27;8.90;;;8.60;97.20;;;;;;5032272;28;20017;-76
2021/10/10 06:02:34;;;;;;;18.98;9.20;;;8.60;97.20;;;;;;5030148;28;20090;-76
2021/10/10 06:05:00;;;;;;;15.38;8.90;;;8.60;97.40;;;;;;5032031;28;20041;-75
2021/10/10 06:07:25;;;;;;;15.25;9.32;;;8.60;97.20;;;;;;5030074;28;20436;-76
2021/10/10 06:09:51;;;;;;;17.50;9.13;;;8.60;97.10;;;;;;5031768;28;20030;-75
2021/10/10 06:12:17;;;;;;;17.13;9.63;;;8.60;97.10;;;;;;5031577;28;20088;-77
2021/10/10 06:14:43;;;;;;;17.63;9.43;;;8.60;97.10;;;;;;5031617;28;20094;-75
2021/10/10 06:17:10;;;;;;;16.00;8.93;;;8.60;97.10;;;;;;5030641;28;20481;-75
2021/10/10 06:19:36;;;;;;;15.98;9.13;;;8.50;97.10;;;;;;5031342;28;20025;-75
2021/10/10 06:22:02;;;;;;;17.27;8.73;;;8.60;97.10;;;;;;5030593;28;20026;-75
2021/10/10 06:24:28;;;;;;;15.43;9.32;;;8.50;97.10;;;;;;5030949;28;20140;-75
2021/10/10 06:26:53;;;;;;;15.40;7.97;;;8.60;97.10;;;;;;5031860;28;20104;-74
2021/10/10 06:29:19;;;;;;;16.80;8.73;;;8.60;97.10;;;;;;5031304;28;20103;-74
2021/10/10 06:31:45;;;;;;;17.38;9.25;;;8.60;97.00;;;;;;5031398;28;20029;-76
2021/10/10 06:34:10;;;;;;;15.68;9.48;;;8.60;97.00;;;;;;5030565;28;20021;-76
2021/10/10 06:36:36;;;;;;;16.55;9.18;;;8.70;97.00;;;;;;5031193;28;20066;-74
2021/10/10 06:39:03;;;;;;;16.63;9.35;;;8.60;96.90;;;;;;5031657;28;20025;-75
2021/10/10 06:41:28;;;;;;;15.10;8.43;;;8.70;97.00;;;;;;5030950;28;20021;-75
2021/10/10 06:43:54;;;;;;;15.30;9.05;;;8.70;96.90;;;;;;5031834;28;20072;-76
2021/10/10 06:46:21;;;;;;;16.77;10.02;;;8.80;96.90;;;;;;5029709;28;20026;-76
2021/10/10 06:48:47;;;;;;;21.17;10.25;;;8.90;96.80;;;;;;5031727;28;20049;-75
2021/10/10 06:51:12;;;;;;;19.65;10.05;;;9.00;96.70;;;;;;5030420;28;20112;-75
2021/10/10 06:53:38;;;;;;;17.63;10.20;;;9.00;96.70;;;;;;5031212;28;20049;-75
2021/10/10 06:56:04;;;;;;;17.00;10.20;;;9.00;96.70;;;;;;5033747;28;20040;-75
2021/10/10 06:58:33;;;;;;;20.48;10.70;;;9.00;96.70;;;;;;5044685;28;20040;-76
2021/10/10 07:00:59;;;;;;;19.75;10.75;;;9.00;96.70;;;;;;5032471;28;20030;-75
2021/10/10 07:03:25;;;;;;;20.55;10.57;;;9.10;96.60;;;;;;5032762;28;20111;-76
2021/10/10 07:05:51;;;;;;;24.65;11.15;;;9.20;96.60;;;;;;5031137;28;20053;-76
2021/10/10 07:08:16;;;;;;;20.42;10.48;;;9.20;96.60;;;;;;5026152;28;20029;-75
2021/10/10 07:10:42;;;;;;;24.98;10.98;;;9.20;96.50;;;;;;5014452;28;20773;-76
2021/10/10 07:13:08;;;;;;;24.40;12.93;;;9.30;96.50;;;;;;5024889;28;20037;-76
2021/10/10 07:15:34;;;;;;;22.52;11.75;;;9.30;96.50;;;;;;5014477;28;20041;-76
2021/10/10 07:18:02;;;;;;;21.02;11.27;;;9.40;96.50;;;;;;5013623;28;20025;-74
2021/10/10 07:25:40;;;;;;;18.58;10.48;;;9.40;96.40;;;;;;5034047;28;20126;-76
2021/10/10 07:28:06;;;;;;;16.98;9.75;;;9.50;96.40;;;;;;5033318;28;20105;-75
2021/10/10 07:30:31;;;;;;;15.45;9.35;;;9.50;96.40;;;;;;5032353;28;20168;-75
2021/10/10 07:32:57;;;;;;;18.20;10.57;;;9.50;96.40;;;;;;5033134;28;20117;-75
2021/10/10 07:35:23;;;;;;;15.00;9.20;;;9.50;96.50;;;;;;5033902;28;20033;-77
2021/10/10 07:37:48;;;;;;;15.40;8.68;;;9.50;96.50;;;;;;5033145;28;20351;-75
2021/10/10 07:40:14;;;;;;;17.95;9.30;;;9.50;96.50;;;;;;5032987;28;20029;-75
2021/10/10 07:42:40;;;;;;;16.90;9.35;;;9.50;96.60;;;;;;5032773;28;20131;-75
2021/10/10 07:45:17;;;;;;;17.75;10.15;;;9.60;96.60;;;;;;5034149;28;20386;-75
2021/10/10 07:50:10;;;;;;;16.35;9.02;;;9.80;96.50;;;;;;5034307;28;20040;-75
2021/10/10 07:52:36;;;;;;;16.38;9.52;;;9.80;96.50;;;;;;5032262;28;20030;-76
2021/10/10 07:55:04;;;;;;;14.30;9.10;;;9.90;96.50;;;;;;5034266;28;20033;-75
2021/10/10 07:57:30;;;;;;;15.80;9.80;;;9.90;96.40;;;;;;5032248;28;20466;-76
2021/10/10 07:59:56;;;;;;;18.30;11.05;;;10.00;96.40;;;;;;5033987;28;20032;-75
2021/10/10 08:02:22;;;;;;;15.13;9.63;;;10.10;96.40;;;;;;5032798;28;20036;-75
2021/10/10 08:04:47;;;;;;;16.80;10.88;;;10.10;96.40;;;;;;5031516;28;20097;-75
2021/10/10 08:07:13;;;;;;;17.25;11.10;;;10.20;96.40;;;;;;5033635;28;20180;-76
2021/10/10 08:09:39;;;;;;;21.45;10.68;;;10.20;96.40;;;;;;5033240;28;20021;-76
2021/10/10 08:12:05;;;;;;;19.33;10.70;;;10.30;96.40;;;;;;5032342;28;20470;-75
2021/10/10 08:14:30;;;;;;;17.42;10.63;;;10.40;96.40;;;;;;5033270;28;20312;-76
2021/10/10 08:16:56;;;;;;;16.27;10.35;;;10.50;96.40;;;;;;5032389;28;20510;-75
2021/10/10 08:19:22;;;;;;;17.27;10.40;;;10.50;96.40;;;;;;5033798;28;20026;-75
2021/10/10 08:21:49;;;;;;;17.23;9.63;;;10.60;96.40;;;;;;5031707;28;20116;-75
2021/10/10 08:24:17;;;;;;;21.00;12.35;;;10.60;96.40;;;;;;5032356;28;20025;-75
2021/10/10 08:26:42;;;;;;;17.80;10.32;;;10.70;96.40;;;;;;5033039;28;20129;-75
2021/10/10 08:29:08;;;;;;;19.75;11.30;;;10.70;96.40;;;;;;5033792;28;20106;-75
2021/10/10 08:31:34;;;;;;;19.70;11.88;;;10.80;96.30;;;;;;5032749;28;20033;-75
2021/10/10 08:33:59;;;;;;;19.23;12.27;;;10.90;96.30;;;;;;5033697;28;20079;-76
2021/10/10 08:36:25;;;;;;;20.38;12.52;;;10.90;96.30;;;;;;5033042;28;20486;-75
2021/10/10 08:38:51;;;;;;;22.77;13.20;;;10.90;96.30;;;;;;5032656;28;20053;-75
2021/10/10 08:41:23;;;;;;;24.77;13.45;;;11.00;96.40;;;;;;5033280;28;20087;-75
2021/10/10 08:43:50;;;;;;;26.08;13.55;;;11.10;96.40;;;;;;5031406;28;20028;-75
2021/10/10 08:46:23;;;;;;;26.40;13.48;;;11.10;96.30;;;;;;5032896;28;20029;-75
2021/10/10 08:48:50;;;;;;;24.92;12.45;;;11.20;96.30;;;;;;5032262;28;20132;-75
2021/10/10 08:51:16;;;;;;;22.23;13.07;;;11.20;96.30;;;;;;5031811;28;20021;-76
2021/10/10 08:53:42;;;;;;;23.17;13.93;;;11.30;96.20;;;;;;5032390;28;20037;-74
2021/10/10 08:56:08;;;;;;;25.13;15.75;;;11.40;96.10;;;;;;5031707;28;20108;-75
2021/10/10 08:58:39;;;;;;;28.60;14.55;;;11.50;96.10;;;;;;5032560;28;20335;-76
2021/10/10 09:01:15;;;;;;;26.95;14.60;;;11.50;96.00;;;;;;5031721;28;20013;-74
2021/10/10 09:03:49;;;;;;;21.58;12.73;;;11.60;96.00;;;;;;5032330;28;20056;-77
2021/10/10 09:06:16;;;;;;;23.65;13.52;;;11.70;96.00;;;;;;5010765;28;20060;-76
2021/10/10 09:08:42;;;;;;;24.05;13.05;;;11.70;95.90;;;;;;5024516;28;20377;-76
2021/10/10 09:11:09;;;;;;;22.08;12.77;;;11.80;95.90;;;;;;5021394;28;20033;-75
2021/10/10 09:13:37;;;;;;;25.20;14.20;;;11.90;95.90;;;;;;5024093;28;20028;-76
2021/10/10 09:16:05;;;;;;;22.20;12.73;;;11.90;95.90;;;;;;5022796;28;20025;-78
2021/10/10 09:18:38;;;;;;;21.85;13.75;;;12.00;95.90;;;;;;5023234;28;20021;-76
2021/10/10 09:21:16;;;;;;;21.95;12.13;;;12.00;95.90;;;;;;5024419;28;20099;-76
2021/10/10 09:23:48;;;;;;;22.77;12.48;;;12.00;96.00;;;;;;5020614;28;20662;-76
2021/10/10 09:26:14;;;;;;;19.35;11.45;;;12.10;96.00;;;;;;5040010;28;20041;-77
2021/10/10 09:28:40;;;;;;;26.85;13.18;;;12.10;96.00;;;;;;5024941;28;20124;-75
2021/10/10 09:31:07;;;;;;;22.10;13.20;;;12.20;96.00;;;;;;5023437;28;20464;-75
2021/10/10 09:33:43;;;;;;;25.55;14.23;;;12.30;95.90;;;;;;5021698;28;20018;-76
2021/10/10 09:36:21;;;;;;;25.48;13.63;;;12.30;95.90;;;;;;5023469;28;20112;-75
2021/10/10 09:38:58;;;;;;;25.02;15.25;;;12.40;95.80;;;;;;5022779;28;20033;-76
2021/10/10 09:44:16;;;;;;;26.65;15.02;;;12.50;95.80;;;;;;5022475;28;20147;-77
2021/10/10 09:46:44;;;;;;;22.35;12.23;;;12.60;95.80;;;;;;5022220;28;20521;-76
2021/10/10 09:49:24;;;;;;;30.88;15.38;;;12.60;95.70;;;;;;5023525;28;20188;-76
2021/10/10 09:51:51;;;;;;;25.52;15.07;;;12.60;95.80;;;;;;5024494;28;20037;-78
2021/10/10 09:54:17;;;;;;;25.35;15.00;;;12.60;95.80;;;;;;5023401;28;20131;-76
2021/10/10 09:57:03;;;;;;;27.75;14.88;;;12.50;95.90;;;;;;5022242;28;20326;-76
2021/10/10 09:59:29;;;;;;;28.05;15.25;;;12.50;96.10;;;;;;5024637;28;20354;-77
2021/10/10 10:01:55;;;;;;;24.45;14.05;;;12.50;96.10;;;;;;5024775;28;20018;-78
2021/10/10 10:04:20;;;;;;;24.38;13.60;;;12.50;96.20;;;;;;5021105;28;20048;-76
2021/10/10 10:06:46;;;;;;;24.80;14.93;;;12.50;96.30;;;;;;5014330;28;20045;-76
2021/10/10 10:09:13;;;;;;;24.33;14.68;;;12.50;96.30;;;;;;5023010;28;20029;-76
2021/10/10 10:11:41;;;;;;;26.15;14.50;;;12.50;96.30;;;;;;5022770;28;20029;-76
2021/10/10 10:14:10;;;;;;;30.80;17.42;;;12.50;96.30;;;;;;5021629;28;20037;-76
2021/10/10 10:16:41;;;;;;;28.00;17.45;;;12.60;96.30;;;;;;5023414;28;20013;-76
2021/10/10 10:19:09;;;;;;;;;;;12.60;96.20;;;;;;5023915;28;20025;-76
2021/10/10 10:21:35;;;;;;;26.17;14.43;;;12.70;96.20;;;;;;5023966;28;19920;-77
2021/10/10 10:24:02;;;;;;;28.73;16.10;;;12.70;96.10;;;;;;5023505;28;20040;-76
2021/10/10 10:26:30;;;;;;;26.60;14.45;;;12.80;96.10;;;;;;5039748;28;20064;-78
2021/10/10 10:28:58;;;;;;;27.02;14.52;;;12.90;96.00;;;;;;5025957;28;20070;-77
2021/10/10 10:31:24;;;;;;;27.67;13.27;;;12.90;96.00;;;;;;5029197;28;20033;-77
2021/10/10 10:33:50;;;;;;;27.88;14.45;;;13.00;95.90;;;;;;5025330;28;20034;-75
2021/10/10 10:36:15;;;;;;;25.42;13.02;;;13.00;95.90;;;;;;5028048;28;20033;-76
2021/10/10 10:38:48;;;;;;;26.58;14.20;;;13.10;95.80;;;;;;5033544;28;20063;-76
2021/10/10 10:41:48;;;;;;;28.33;16.63;;;13.10;95.80;;;;;;5035661;28;20026;-75
2021/10/10 10:44:36;;;;;;;25.07;14.40;;;13.20;95.80;;;;;;5034328;28;20629;-75
2021/10/10 10:47:10;;;;;;;27.17;14.07;;;13.20;95.70;;;;;;5033025;28;20036;-76
2021/10/10 10:49:55;;;;;;;27.27;15.50;;;13.30;95.70;;;;;;5017827;28;20077;-79
2021/10/10 10:52:34;;;;;;;26.48;14.50;;;13.40;95.70;;;;;;5014529;28;20121;-75
2021/10/10 10:55:17;;;;;;;24.40;13.05;;;13.40;95.70;;;;;;5015106;28;20065;-75
2021/10/10 10:57:48;;;;;;;22.60;12.30;;;13.50;95.60;;;;;;5013723;28;20489;-75
2021/10/10 11:00:15;;;;;;;32.42;16.10;;;13.60;95.60;;;;;;5015472;28;20104;-75
2021/10/10 11:03:09;;;;;;;25.33;13.60;;;13.70;95.50;;;;;;5011766;28;20181;-77
2021/10/10 11:05:42;;;;;;;24.98;14.02;;;13.80;95.50;;;;;;5013338;28;20053;-75
2021/10/10 11:08:17;;;;;;;27.98;14.02;;;13.80;95.40;;;;;;5013268;28;20022;-76
2021/10/10 11:11:04;;;;;;;26.08;13.82;;;13.90;95.30;;;;;;5011119;28;20026;-76
2021/10/10 11:13:35;;;;;;;24.65;13.77;;;14.00;95.30;;;;;;5013075;28;20038;-74
2021/10/10 11:16:05;;;;;;;27.25;15.35;;;14.10;95.20;;;;;;5012036;28;20044;-75
2021/10/10 11:19:18;;;;;;;27.70;15.52;;;14.10;95.20;;;;;;5012836;28;20397;-76
2021/10/10 11:25:24;;;;;;;23.47;13.33;;;14.30;95.00;;;;;;5020820;28;20466;-76
2021/10/10 11:28:13;;;;;;;24.20;13.73;;;14.50;94.90;;;;;;5029948;28;20283;-77
2021/10/10 11:31:23;;;;;;;28.98;14.32;;;14.60;94.80;;;;;;5026866;28;20090;-80
2021/10/10 11:34:16;;;;;;;24.15;14.25;;;14.60;94.80;;;;;;5012283;28;20049;-77
2021/10/10 11:37:43;;;;;;;26.97;15.27;;;14.80;94.80;;;;;;5031305;28;20025;-77
2021/10/10 11:41:28;;;;;;;25.77;14.52;;;14.90;94.80;;;;;;5031545;28;20295;-75
2021/10/10 11:44:26;;;;;;;22.85;12.73;;;15.00;94.80;;;;;;5021558;28;20034;-76
2021/10/10 11:47:06;;;;;;;21.70;12.52;;;15.20;94.60;;;;;;5047925;28;20045;-76
2021/10/10 11:49:45;;;;;;;22.97;12.67;;;15.20;94.40;;;;;;5031293;28;20485;-77
2021/10/10 11:55:04;;;;;;;21.30;11.93;;;15.30;94.40;;;;;;5031408;28;20026;-76
2021/10/10 11:57:30;;;;;;;21.42;12.40;;;15.30;94.40;;;;;;5032200;28;20489;-79
2021/10/10 12:00:21;;;;;;;23.10;12.55;;;15.40;94.40;;;;;;5031509;28;20029;-77
2021/10/10 12:02:48;;;;;;;19.02;10.52;;;15.50;94.30;;;;;;5030100;28;20029;-78
2021/10/10 12:05:16;;;;;;;17.95;10.25;;;15.60;94.20;;;;;;5047418;28;20030;-77
2021/10/10 12:07:44;;;;;;;17.15;8.55;;;15.60;94.10;;;;;;5031097;28;20026;-78
2021/10/10 12:10:16;;;;;;;19.55;9.00;;;15.70;94.10;;;;;;5030349;28;20049;-77
2021/10/10 12:12:42;;;;;;;18.92;9.95;;;15.70;94.00;;;;;;5030111;28;20030;-80
2021/10/10 12:15:09;;;;;;;18.15;9.57;;;15.70;94.00;;;;;;5030399;28;20076;-77
2021/10/10 12:17:48;;;;;;;19.88;9.77;;;15.70;93.90;;;;;;5046894;28;20121;-78
2021/10/10 12:20:17;;;;;;;16.65;8.73;;;15.60;93.80;;;;;;5031486;28;20136;-79
2021/10/10 12:22:50;;;;;;;18.45;9.80;;;15.70;93.80;;;;;;5029829;28;20355;-77
2021/10/10 12:25:39;;;;;;;17.80;9.32;;;15.60;93.60;;;;;;5031294;28;20433;-76
2021/10/10 12:28:16;;;;;;;17.45;9.10;;;15.60;93.50;;;;;;5030901;28;20029;-78
2021/10/10 12:30:54;;;;;;;16.95;9.73;;;15.60;93.50;;;;;;5046773;28;20048;-77
2021/10/10 12:33:34;;;;;;;18.63;9.63;;;15.60;93.10;;;;;;5031232;28;20033;-77
2021/10/10 12:36:14;;;;;;;16.52;9.68;;;15.60;93.10;;;;;;5029674;28;20377;-77
2021/10/10 12:38:49;;;;;;;19.08;9.05;;;15.60;93.10;;;;;;5046852;28;20021;-77
2021/10/10 12:41:21;;;;;;;19.83;9.82;;;15.50;93.10;;;;;;5031395;28;20026;-77
2021/10/10 12:43:53;;;;;;;18.02;8.40;;;15.60;92.90;;;;;;5030644;28;20037;-78
2021/10/10 12:46:20;;;;;;;17.35;9.43;;;15.50;92.80;;;;;;5029627;28;20469;-78
2021/10/10 12:49:05;;;;;;;19.77;10.35;;;15.50;92.80;;;;;;5030207;28;20049;-78
2021/10/10 12:51:31;;;;;;;20.85;9.45;;;15.60;92.70;;;;;;5030569;28;20030;-76
2021/10/10 12:54:20;;;;;;;21.38;10.23;;;15.60;92.70;;;;;;5030504;28;20026;-77
2021/10/10 12:57:06;;;;;;;21.63;11.43;;;15.70;92.50;;;;;;5046088;28;20437;-76
2021/10/10 12:59:33;;;;;;;24.02;12.13;;;15.70;92.40;;;;;;5030786;28;20017;-78
2021/10/10 13:01:59;;;;;;;24.27;12.77;;;15.70;92.40;;;;;;5030401;28;20091;-78
2021/10/10 13:04:27;;;;;;;21.63;11.18;;;15.90;92.30;;;;;;5046177;28;20044;-77
2021/10/10 13:06:53;;;;;;;23.60;12.32;;;15.90;92.10;;;;;;5030279;28;20045;-77